createdAt,value
2019-03-24T00:04:23.202Z,9.7
2019-03-24T00:09:25.867Z,9.7
2019-03-24T00:14:28.035Z,9.7
2019-03-24T00:19:30.494Z,9.7
2019-03-24T00:24:32.941Z,9.6
2019-03-24T00:29:35.423Z,9.6
2019-03-24T00:34:38.003Z,9.6
2019-03-24T00:39:40.602Z,9.6
2019-03-24T00:44:42.825Z,9.6
2019-03-24T00:49:45.232Z,9.6
2019-03-24T00:54:47.706Z,9.6
2019-03-24T00:59:50.158Z,9.5
2019-03-24T01:04:52.696Z,9.5
2019-03-24T01:09:55.349Z,9.5
2019-03-24T01:14:57.581Z,9.5
2019-03-24T01:19:59.990Z,9.5
2019-03-24T01:30:04.930Z,9.5
2019-03-24T01:35:07.444Z,9.5
2019-03-24T01:40:09.902Z,9.5
2019-03-24T01:45:12.262Z,9.4
2019-03-24T01:50:14.720Z,9.4
2019-03-24T01:55:17.193Z,9.4
2019-03-24T02:00:19.640Z,9.4
2019-03-24T02:05:22.174Z,9.4
2019-03-24T02:10:24.919Z,9.4
2019-03-24T02:15:27.015Z,9.4
2019-03-24T02:20:29.458Z,9.4
2019-03-24T02:25:32.035Z,9.4
2019-03-24T02:30:34.459Z,9.3
2019-03-24T02:35:36.921Z,9.3
2019-03-24T02:40:39.293Z,9.3
2019-03-24T02:45:41.745Z,9.3
2019-03-24T02:50:44.217Z,9.2
2019-03-24T02:55:46.662Z,9.2
2019-03-24T03:00:49.115Z,9.2
2019-03-24T03:05:51.690Z,9.2
2019-03-24T03:10:54.053Z,9.2
2019-03-24T03:15:56.510Z,9.2
2019-03-24T03:20:59.038Z,9.2
2019-03-24T03:26:01.415Z,9.2
2019-03-24T03:31:03.912Z,9.1
2019-03-24T03:36:06.420Z,9.1
2019-03-24T03:41:08.805Z,9.1
2019-03-24T03:46:11.246Z,9.1
2019-03-24T03:51:13.740Z,9.1
2019-03-24T03:56:16.228Z,9.1
2019-03-24T04:01:18.617Z,9.1
2019-03-24T04:06:21.159Z,9
2019-03-24T04:11:23.544Z,9
2019-03-24T04:36:36.048Z,9
2019-03-24T04:41:38.264Z,9
2019-03-24T04:46:40.723Z,8.9
2019-03-24T04:51:43.211Z,8.9
2019-03-24T04:56:45.660Z,8.9
2019-03-24T05:01:48.159Z,8.9
2019-03-24T05:06:50.568Z,8.9
2019-03-24T05:11:53.371Z,8.9
2019-03-24T05:16:55.466Z,8.9
2019-03-24T05:21:57.923Z,8.9
2019-03-24T05:27:00.473Z,8.9
2019-03-24T05:32:02.847Z,8.9
2019-03-24T05:37:05.447Z,8.9
2019-03-24T05:42:07.818Z,9
2019-03-24T05:47:10.213Z,9
2019-03-24T05:52:12.682Z,9
2019-03-24T05:57:15.128Z,9.1
2019-03-24T06:02:17.740Z,9.1
2019-03-24T06:07:20.131Z,9.2
2019-03-24T06:12:22.815Z,9.2
2019-03-24T06:17:24.975Z,9.3
2019-03-24T06:22:27.429Z,9.4
2019-03-24T06:27:29.882Z,9.5
2019-03-24T06:32:32.393Z,9.5
2019-03-24T06:37:34.799Z,9.6
2019-03-24T06:42:37.254Z,9.7
2019-03-24T06:47:39.705Z,9.8
2019-03-24T06:52:42.210Z,9.9
2019-03-24T06:57:44.620Z,10
2019-03-24T07:02:47.091Z,10.1
2019-03-24T07:07:49.549Z,10.2
2019-03-24T07:12:51.994Z,10.2
2019-03-24T07:17:54.458Z,10.2
2019-03-24T07:22:56.928Z,10.3
2019-03-24T07:27:59.362Z,10.4
2019-03-24T07:33:01.817Z,10.4
2019-03-24T07:38:04.390Z,10.5
2019-03-24T07:43:06.748Z,10.5
2019-03-24T07:48:18.605Z,10.7
2019-03-24T07:53:11.720Z,10.9
2019-03-24T07:58:14.100Z,11.2
2019-03-24T08:03:16.611Z,11.4
2019-03-24T08:08:19.410Z,11.6
2019-03-24T08:13:21.508Z,11.9
2019-03-24T08:18:29.715Z,12
2019-03-24T08:23:26.401Z,12.2
2019-03-24T08:28:28.929Z,12.3
2019-03-24T08:33:31.385Z,12.4
2019-03-24T08:38:33.853Z,12.6
2019-03-24T08:43:36.520Z,12.7
2019-03-24T08:48:40.996Z,12.8
2019-03-24T08:53:41.246Z,13
2019-03-24T08:58:43.635Z,13.2
2019-03-24T09:03:46.185Z,13.3
2019-03-24T09:08:49.032Z,13.4
2019-03-24T09:13:51.020Z,13.6
2019-03-24T09:18:53.696Z,13.7
2019-03-24T09:23:55.929Z,13.7
2019-03-24T09:28:59.347Z,13.6
2019-03-24T09:34:00.868Z,13.5
2019-03-24T09:39:03.288Z,13.4
2019-03-24T09:44:05.733Z,13.4
2019-03-24T09:49:08.216Z,13.3
2019-03-24T09:54:10.628Z,13.2
2019-03-24T09:59:13.200Z,13
2019-03-24T10:04:15.807Z,12.9
2019-03-24T10:09:18.101Z,12.7
2019-03-24T10:14:20.500Z,12.5
2019-03-24T10:19:22.930Z,12.4
2019-03-24T10:24:25.390Z,12.4
2019-03-24T10:29:27.835Z,12.3
2019-03-24T10:34:30.341Z,12.3
2019-03-24T10:39:32.823Z,12.2
2019-03-24T10:44:35.500Z,12.2
2019-03-24T10:49:37.657Z,12.2
2019-03-24T10:54:40.127Z,12.2
2019-03-24T10:59:42.598Z,12.2
2019-03-24T11:04:45.048Z,12.2
2019-03-24T11:09:47.679Z,12.3
2019-03-24T11:14:49.957Z,12.3
2019-03-24T11:19:52.412Z,12.3
2019-03-24T11:24:54.872Z,12.4
2019-03-24T11:29:57.709Z,12.4
2019-03-24T11:34:59.774Z,12.5
2019-03-24T11:40:02.425Z,12.6
2019-03-24T11:45:05.006Z,12.7
2019-03-24T11:50:07.274Z,12.9
2019-03-24T11:55:09.685Z,12.9
2019-03-24T12:00:12.088Z,13
2019-03-24T12:05:14.525Z,13
2019-03-24T12:10:17.078Z,13.1
2019-03-24T12:15:19.448Z,13.2
2019-03-24T12:20:21.913Z,13.2
2019-03-24T12:25:24.392Z,13.2
2019-03-24T12:30:26.825Z,13.2
2019-03-24T12:35:29.317Z,13.2
2019-03-24T12:40:31.827Z,13.1
2019-03-24T12:45:34.511Z,13.1
2019-03-24T12:50:36.688Z,13.1
2019-03-24T12:55:39.103Z,13
2019-03-24T13:00:41.564Z,12.9
2019-03-24T13:05:44.118Z,12.8
2019-03-24T13:10:46.564Z,12.7
2019-03-24T13:15:49.730Z,12.5
2019-03-24T13:20:51.385Z,12.4
2019-03-24T13:25:53.885Z,12.2
2019-03-24T13:30:56.354Z,12.1
2019-03-24T13:35:58.782Z,11.9
2019-03-24T13:41:01.383Z,11.8
2019-03-24T13:46:04.025Z,11.7
2019-03-24T13:51:06.145Z,11.7
2019-03-24T13:56:08.603Z,11.7
2019-03-24T14:01:11.216Z,11.7
2019-03-24T14:06:13.526Z,11.6
2019-03-24T14:11:16.027Z,11.6
2019-03-24T14:16:18.482Z,11.4
2019-03-24T14:21:20.911Z,11.2
2019-03-24T14:26:23.343Z,11
2019-03-24T14:31:25.798Z,10.9
2019-03-24T14:36:28.297Z,10.8
2019-03-24T14:41:30.810Z,10.6
2019-03-24T14:46:33.465Z,10.5
2019-03-24T14:51:35.649Z,10.4
2019-03-24T14:56:38.100Z,10.3
2019-03-24T15:01:40.618Z,10.3
2019-03-24T15:06:43.073Z,10.3
2019-03-24T15:11:45.508Z,10.3
2019-03-24T15:16:47.977Z,10.3
2019-03-24T15:21:50.392Z,10.3
2019-03-24T15:26:52.860Z,10.2
2019-03-24T15:31:55.291Z,10.1
2019-03-24T15:36:57.927Z,10.1
2019-03-24T15:42:00.331Z,10
2019-03-24T15:47:02.665Z,9.9
2019-03-24T15:52:05.128Z,9.9
2019-03-24T15:57:07.714Z,9.8
2019-03-24T16:02:10.038Z,9.8
2019-03-24T16:07:12.543Z,9.8
2019-03-24T16:12:15.086Z,9.7
2019-03-24T16:17:17.642Z,9.7
2019-03-24T16:22:19.878Z,9.7
2019-03-24T16:27:22.405Z,9.7
2019-03-24T16:32:24.864Z,9.8
2019-03-24T16:37:27.244Z,9.8
2019-03-24T16:42:29.817Z,9.8
2019-03-24T16:47:32.236Z,9.7
2019-03-24T16:52:34.726Z,9.6
2019-03-24T16:57:37.077Z,9.5
2019-03-24T17:07:41.974Z,9.4
2019-03-24T17:12:44.454Z,9.3
2019-03-24T17:17:46.903Z,9.2
2019-03-24T17:22:49.406Z,9.1
2019-03-24T17:27:51.814Z,9.1
2019-03-24T17:32:54.285Z,9
2019-03-24T17:37:56.726Z,8.9
2019-03-24T17:42:59.332Z,8.9
2019-03-24T17:48:01.954Z,8.8
2019-03-24T17:53:06.487Z,8.8
2019-03-24T17:58:06.552Z,8.8
2019-03-24T18:03:09.029Z,8.7
2019-03-24T18:08:11.451Z,8.7
2019-03-24T18:13:14.019Z,8.6
2019-03-24T18:18:16.744Z,8.5
2019-03-24T18:23:18.831Z,8.5
2019-03-24T18:38:26.219Z,8.4
2019-03-24T18:43:28.695Z,8.4
2019-03-24T18:48:31.166Z,8.3
2019-03-24T18:53:33.572Z,8.3
2019-03-24T18:58:36.063Z,8.3
2019-03-24T19:03:38.522Z,8.3
2019-03-24T19:08:40.978Z,8.2
2019-03-24T19:13:43.484Z,8.2
2019-03-24T19:18:46.166Z,8.2
2019-03-24T19:23:48.343Z,8.1
2019-03-24T19:28:50.780Z,8
2019-03-24T19:33:53.227Z,7.9
2019-03-24T19:38:55.709Z,7.8
2019-03-24T19:43:58.175Z,7.6
2019-03-24T19:49:00.940Z,7.6
2019-03-24T19:54:03.126Z,7.5
2019-03-24T19:59:05.517Z,7.6
2019-03-24T20:04:08.036Z,7.6
2019-03-24T20:09:10.446Z,7.6
2019-03-24T20:14:12.967Z,7.6
2019-03-24T20:24:17.829Z,7.7
2019-03-24T20:29:20.283Z,7.7
2019-03-24T20:34:22.757Z,7.7
2019-03-24T20:39:25.330Z,7.7
2019-03-24T20:44:27.724Z,7.7
2019-03-24T20:49:30.106Z,7.6
2019-03-24T20:54:32.627Z,7.6
2019-03-24T20:59:35.021Z,7.6
2019-03-24T21:04:37.477Z,7.6
2019-03-24T21:09:40.013Z,7.6
2019-03-24T21:14:42.433Z,7.6
2019-03-24T21:19:44.936Z,7.6
2019-03-24T21:24:47.352Z,7.6
2019-03-24T21:29:49.796Z,7.7
2019-03-24T21:34:52.296Z,7.7
2019-03-24T21:39:54.811Z,7.6
2019-03-24T21:44:57.173Z,7.6
2019-03-24T21:49:59.665Z,7.6
2019-03-24T21:55:02.536Z,7.6
2019-03-24T22:00:04.566Z,7.5
2019-03-24T22:10:09.485Z,7.4
2019-03-24T22:15:12.283Z,7.4
2019-03-24T22:20:14.390Z,7.4
2019-03-24T22:25:17.251Z,7.4
2019-03-24T22:30:19.307Z,7.4
2019-03-24T22:35:21.775Z,7.4
2019-03-24T22:40:24.246Z,7.4
2019-03-24T22:45:26.893Z,7.4
2019-03-24T22:50:29.184Z,7.4
2019-03-24T22:55:31.918Z,7.4
2019-03-24T23:00:34.072Z,7.4
2019-03-24T23:05:36.568Z,7.5
2019-03-24T23:10:39.039Z,7.4
2019-03-24T23:15:41.516Z,7.4
2019-03-24T23:20:43.923Z,7.4
2019-03-24T23:25:46.768Z,7.3
2019-03-24T23:30:48.819Z,7.3
2019-03-24T23:35:51.289Z,7.2
2019-03-24T23:40:53.767Z,7.2
2019-03-24T23:45:56.277Z,7.2
2019-03-24T23:50:58.711Z,7.2
2019-03-24T23:56:01.479Z,7.2
